Time;durP1;ratioP1;P1;durP2;ratioP2;P2;SDS_P1;SDS_P2;PMS_P1;PMS_P2;Temp;Humidity;BMP_temperature;BMP_pressure;BME280_temperature;BME280_humidity;BME280_pressure;Samples;Min_cycle;Max_cycle;Signal;HPM_P1;HPM_P2
2023/12/09 00:01:11;;;;;;;28.17;16.77;;;;;;;2.07;100.00;101113.78;6178500;28;20257;-76
2023/12/09 00:04:32;;;;;;;29.50;19.40;;;;;;;2.13;100.00;101113.47;6176851;28;20241;-78
2023/12/09 00:07:53;;;;;;;26.33;15.83;;;;;;;2.24;100.00;101113.78;6180464;28;20222;-75
2023/12/09 00:11:14;;;;;;;30.00;18.80;;;;;;;2.23;100.00;101119.19;6170190;28;20241;-74
2023/12/09 00:14:35;;;;;;;27.83;19.40;;;;;;;2.16;100.00;101102.69;6174706;28;20309;-76
2023/12/09 00:17:57;;;;;;;29.13;16.00;;;;;;;2.01;100.00;101107.91;6172384;28;20230;-78
2023/12/09 00:21:18;;;;;;;27.23;15.67;;;;;;;2.05;100.00;101107.66;6168748;28;20308;-79
2023/12/09 00:24:39;;;;;;;30.93;19.67;;;;;;;1.93;100.00;101110.09;6174706;28;20225;-78
2023/12/09 00:28:01;;;;;;;22.90;15.37;;;;;;;1.89;100.00;101104.06;6173091;28;20230;-78
2023/12/09 00:31:22;;;;;;;31.80;17.63;;;;;;;1.98;100.00;101102.75;6168432;28;20624;-78
2023/12/09 00:34:44;;;;;;;26.00;17.77;;;;;;;2.08;100.00;101093.38;6175688;28;20313;-78
2023/12/09 00:38:05;;;;;;;26.13;18.07;;;;;;;2.21;100.00;101094.47;6161471;28;24842;-78
2023/12/09 00:41:26;;;;;;;27.43;17.07;;;;;;;2.32;100.00;101100.09;6177435;28;20360;-79
2023/12/09 00:44:47;;;;;;;29.00;17.83;;;;;;;2.04;100.00;101102.44;6177765;28;20317;-78
2023/12/09 00:48:08;;;;;;;31.30;23.47;;;;;;;2.17;100.00;101088.44;6169662;28;20222;-78
2023/12/09 00:51:31;;;;;;;33.27;19.27;;;;;;;2.08;100.00;101093.38;6159332;28;20238;-78
2023/12/09 00:54:52;;;;;;;28.07;17.53;;;;;;;2.06;100.00;101105.88;6159507;28;20253;-78
2023/12/09 00:58:13;;;;;;;27.53;17.83;;;;;;;2.10;100.00;101100.34;6159017;28;20675;-77
2023/12/09 01:01:34;;;;;;;28.57;18.00;;;;;;;2.10;100.00;101110.09;6132636;28;20234;-78
2023/12/09 01:04:55;;;;;;;20.87;16.47;;;;;;;2.21;100.00;101105.13;6155698;28;20234;-78
2023/12/09 01:08:17;;;;;;;26.60;16.63;;;;;;;2.03;100.00;101109.56;6151519;28;20234;-78
2023/12/09 01:11:38;;;;;;;41.30;18.17;;;;;;;1.95;100.00;101102.88;6150780;28;21257;-77
2023/12/09 01:14:59;;;;;;;33.07;19.03;;;;;;;1.92;100.00;101103.91;6172245;28;20222;-79
2023/12/09 01:18:20;;;;;;;30.63;19.97;;;;;;;1.86;100.00;101108.66;6164090;28;20255;-78
2023/12/09 01:21:42;;;;;;;24.47;16.57;;;;;;;1.88;100.00;101105.00;6161932;28;20258;-79
2023/12/09 01:25:05;;;;;;;29.40;17.63;;;;;;;1.91;100.00;101101.31;6171099;28;20218;-79
2023/12/09 01:28:26;;;;;;;25.43;15.80;;;;;;;2.07;100.00;101103.13;6174280;28;20222;-77
2023/12/09 01:31:47;;;;;;;37.00;18.77;;;;;;;1.85;100.00;101113.13;6159823;28;20344;-78
2023/12/09 01:35:08;;;;;;;28.10;18.27;;;;;;;2.02;100.00;101114.94;6150045;28;20643;-77
2023/12/09 01:38:29;;;;;;;35.67;19.10;;;;;;;1.91;100.00;101103.97;6164147;28;20238;-78
2023/12/09 01:41:51;;;;;;;33.57;17.43;;;;;;;1.89;100.00;101114.69;6171963;28;20234;-76
2023/12/09 01:45:12;;;;;;;30.20;22.20;;;;;;;1.92;100.00;101108.38;6159392;28;20246;-76
2023/12/09 01:48:33;;;;;;;33.87;21.40;;;;;;;1.92;100.00;101103.91;6163536;28;20321;-78
2023/12/09 01:51:57;;;;;;;33.20;19.97;;;;;;;1.93;100.00;101102.09;6162507;28;20313;-77
2023/12/09 01:55:18;;;;;;;45.43;22.00;;;;;;;1.86;100.00;101104.19;6174840;28;20234;-78
2023/12/09 01:58:41;;;;;;;26.13;15.50;;;;;;;1.92;100.00;101093.25;6167499;28;20229;-78
2023/12/09 02:02:02;;;;;;;29.70;15.23;;;;;;;1.99;100.00;101086.72;6175708;28;20275;-80
2023/12/09 02:05:24;;;;;;;32.43;20.43;;;;;;;1.99;100.00;101091.16;6160672;28;20325;-80
2023/12/09 02:08:44;;;;;;;50.37;24.27;;;;;;;2.00;100.00;101091.06;6161289;28;20226;-77
2023/12/09 02:12:10;;;;;;;48.13;22.13;;;;;;;1.98;100.00;101092.13;6158069;28;20242;-77
2023/12/09 02:15:39;;;;;;;43.83;21.93;;;;;;;2.14;100.00;101077.09;6169727;28;20237;-77
2023/12/09 02:19:01;;;;;;;40.57;18.93;;;;;;;2.09;100.00;101073.81;6169268;28;20233;-78
2023/12/09 02:22:22;;;;;;;49.57;23.13;;;;;;;2.05;100.00;101081.09;6151996;28;20269;-77
2023/12/09 02:25:45;;;;;;;33.27;20.97;;;;;;;2.03;100.00;101079.44;6170043;28;20250;-78
2023/12/09 02:29:07;;;;;;;31.20;20.17;;;;;;;2.12;100.00;101071.88;6169988;28;20262;-78
2023/12/09 02:32:32;;;;;;;50.30;22.23;;;;;;;2.04;100.00;101060.78;6145554;28;20239;-78
2023/12/09 02:35:55;;;;;;;39.50;21.97;;;;;;;2.05;100.00;101065.13;6168790;28;20234;-77
2023/12/09 02:39:18;;;;;;;57.73;29.40;;;;;;;2.09;100.00;101066.69;6170171;28;20229;-78
2023/12/09 02:42:42;;;;;;;53.73;23.67;;;;;;;2.05;100.00;101066.94;6160637;28;20261;-77
2023/12/09 02:46:03;;;;;;;51.00;23.20;;;;;;;2.11;100.00;101066.63;6156635;28;20269;-77
2023/12/09 02:49:24;;;;;;;54.57;26.50;;;;;;;2.26;100.00;101068.50;6172805;28;20238;-78
2023/12/09 02:52:45;;;;;;;30.53;19.17;;;;;;;2.40;100.00;101072.16;6162053;28;20226;-77
2023/12/09 02:56:07;;;;;;;27.60;17.50;;;;;;;2.40;100.00;101056.19;6165540;28;20237;-78
2023/12/09 02:59:30;;;;;;;72.40;29.03;;;;;;;2.17;100.00;101055.69;6173452;28;20249;-78
2023/12/09 03:02:51;;;;;;;47.27;22.83;;;;;;;2.22;100.00;101049.19;6173111;28;20237;-78
2023/12/09 03:06:12;;;;;;;33.63;18.53;;;;;;;2.29;100.00;101045.28;6160082;28;20290;-76
2023/12/09 03:09:33;;;;;;;35.50;19.60;;;;;;;2.31;100.00;101035.41;6148820;28;20229;-79
2023/12/09 03:12:54;;;;;;;37.13;20.73;;;;;;;2.36;100.00;101033.38;6171383;28;20237;-78
2023/12/09 03:16:16;;;;;;;44.87;23.33;;;;;;;2.27;100.00;101048.97;6173740;28;20218;-78
2023/12/09 03:19:37;;;;;;;35.30;19.83;;;;;;;2.37;100.00;101035.09;6139261;28;20241;-77
2023/12/09 03:22:58;;;;;;;28.73;20.10;;;;;;;2.35;100.00;101038.78;6173444;28;20265;-78
2023/12/09 03:26:20;;;;;;;33.50;19.87;;;;;;;2.31;100.00;101045.19;6163017;28;20238;-78
2023/12/09 03:29:41;;;;;;;53.53;26.57;;;;;;;2.31;100.00;101035.41;6173838;28;20234;-79
2023/12/09 03:33:03;;;;;;;38.13;24.20;;;;;;;2.30;100.00;101032.81;6169072;28;20713;-78
2023/12/09 03:36:24;;;;;;;40.97;25.07;;;;;;;2.37;100.00;101031.56;6173095;28;20576;-77
2023/12/09 03:39:45;;;;;;;30.63;18.93;;;;;;;2.38;100.00;101030.63;6174768;28;20238;-77
2023/12/09 03:43:06;;;;;;;31.60;18.73;;;;;;;2.43;100.00;101039.22;6169616;28;20261;-77
2023/12/09 03:46:27;;;;;;;32.73;19.53;;;;;;;2.47;100.00;101032.78;6156563;28;20529;-78
2023/12/09 03:49:49;;;;;;;28.90;19.63;;;;;;;2.51;100.00;101026.38;6170913;28;20229;-77
2023/12/09 03:53:10;;;;;;;44.37;25.00;;;;;;;2.51;100.00;101025.50;6169937;28;20234;-78
2023/12/09 03:56:31;;;;;;;25.40;18.60;;;;;;;2.55;100.00;101024.41;6172268;28;20229;-77
2023/12/09 03:59:52;;;;;;;30.03;17.43;;;;;;;2.52;100.00;101019.25;6172300;28;25332;-78
2023/12/09 04:03:13;;;;;;;35.37;19.00;;;;;;;2.49;100.00;101012.28;6163368;28;20242;-78
2023/12/09 04:06:37;;;;;;;35.70;22.77;;;;;;;2.56;100.00;101015.50;6169658;28;20312;-77
2023/12/09 04:09:58;;;;;;;36.67;22.23;;;;;;;2.68;100.00;101017.47;6171345;28;20234;-78
2023/12/09 04:13:19;;;;;;;36.20;22.67;;;;;;;2.68;100.00;101013.03;6167187;28;20548;-78
2023/12/09 04:16:43;;;;;;;30.73;23.43;;;;;;;2.68;100.00;101015.69;6172328;28;20261;-77
2023/12/09 04:20:05;;;;;;;41.00;26.57;;;;;;;2.68;100.00;101013.03;6174496;28;20233;-77
2023/12/09 04:23:28;;;;;;;31.67;21.57;;;;;;;2.82;100.00;101014.91;6168062;28;20242;-76
2023/12/09 04:26:49;;;;;;;37.00;24.20;;;;;;;2.75;0.00;101017.09;6159758;28;20497;-77
2023/12/09 04:30:11;;;;;;;33.33;21.03;;;;;;;2.70;0.00;101010.28;6152236;28;20226;-78
2023/12/09 04:33:32;;;;;;;43.27;28.20;;;;;;;2.67;0.00;100998.00;6175180;28;20351;-77
2023/12/09 04:36:53;;;;;;;38.53;22.57;;;;;;;2.72;0.00;100985.31;6171941;28;20624;-77
2023/12/09 04:40:16;;;;;;;40.47;24.97;;;;;;;2.71;0.00;100996.88;6159492;28;21115;-78
2023/12/09 04:43:38;;;;;;;40.43;26.27;;;;;;;2.77;0.00;100990.38;6157832;28;20238;-76
2023/12/09 04:46:59;;;;;;;33.50;20.60;;;;;;;2.87;0.00;100996.91;6159264;28;20778;-76
2023/12/09 04:50:21;;;;;;;38.90;22.40;;;;;;;2.94;0.00;100999.13;6166212;28;20241;-77
2023/12/09 04:53:42;;;;;;;32.53;21.33;;;;;;;2.93;0.00;100992.09;6161340;28;20736;-77
2023/12/09 04:57:05;;;;;;;37.60;24.70;;;;;;;2.95;0.00;100992.88;6170925;28;20258;-78
2023/12/09 05:00:26;;;;;;;43.77;26.93;;;;;;;2.91;0.00;100995.78;6161981;28;20238;-78
2023/12/09 05:03:48;;;;;;;42.37;25.23;;;;;;;2.92;0.00;100998.34;6156511;28;20234;-77
2023/12/09 05:07:08;;;;;;;49.80;31.07;;;;;;;2.97;0.00;100990.13;6169687;28;21232;-77
2023/12/09 05:10:30;;;;;;;35.63;21.13;;;;;;;3.03;0.00;101001.28;6173153;28;20603;-78
2023/12/09 05:13:52;;;;;;;35.23;22.20;;;;;;;2.99;0.00;100994.44;6152980;28;20261;-78
2023/12/09 05:17:13;;;;;;;28.60;21.80;;;;;;;3.03;0.00;100989.78;6163878;28;20235;-79
2023/12/09 05:20:34;;;;;;;36.13;23.97;;;;;;;3.07;0.00;100983.34;6174810;28;20241;-78
2023/12/09 05:23:55;;;;;;;30.50;20.57;;;;;;;3.15;0.00;100987.28;6175674;28;20631;-78
2023/12/09 05:27:16;;;;;;;34.37;22.30;;;;;;;3.10;0.00;100988.50;6162509;28;20234;-78
2023/12/09 05:30:38;;;;;;;40.47;24.27;;;;;;;3.10;0.00;100976.06;6176356;28;20612;-79
2023/12/09 05:33:59;;;;;;;32.27;19.50;;;;;;;3.21;0.00;100981.59;6173612;28;20257;-78
2023/12/09 05:37:20;;;;;;;34.73;22.90;;;;;;;3.25;0.00;100982.31;6175912;28;20241;-77
2023/12/09 05:40:41;;;;;;;38.93;21.67;;;;;;;3.33;0.00;100977.41;6175856;28;20596;-78
2023/12/09 05:44:02;;;;;;;34.70;21.00;;;;;;;3.40;0.00;100972.59;6163395;28;20537;-78
2023/12/09 05:47:24;;;;;;;33.30;23.57;;;;;;;3.38;0.00;100982.47;6176493;28;20258;-78
2023/12/09 05:50:45;;;;;;;31.13;21.57;;;;;;;3.42;0.00;100979.53;6174666;28;20242;-78
2023/12/09 05:54:06;;;;;;;41.20;23.67;;;;;;;3.39;0.00;100986.84;6139761;28;20344;-78
2023/12/09 05:57:27;;;;;;;29.60;20.10;;;;;;;3.41;0.00;100975.16;6159630;28;20547;-78
2023/12/09 06:00:48;;;;;;;42.10;22.83;;;;;;;3.44;0.00;100982.97;6170696;28;20806;-78
2023/12/09 06:04:11;;;;;;;38.23;22.40;;;;;;;3.52;0.00;100979.88;6169983;28;20601;-78
2023/12/09 06:07:32;;;;;;;40.67;24.90;;;;;;;3.50;0.00;100973.75;6171283;28;20619;-79
2023/12/09 06:10:53;;;;;;;26.67;20.40;;;;;;;3.55;0.00;100974.34;6172093;28;20487;-79
2023/12/09 06:14:17;;;;;;;28.77;19.87;;;;;;;3.56;0.00;100968.06;6152836;28;20226;-79
2023/12/09 06:17:38;;;;;;;35.57;24.70;;;;;;;3.57;0.00;100975.97;6168458;28;20229;-79
2023/12/09 06:21:00;;;;;;;37.70;21.83;;;;;;;3.58;0.00;100968.84;6170281;28;20241;-78
2023/12/09 06:24:21;;;;;;;37.33;25.27;;;;;;;3.57;0.00;100972.44;6158902;28;20341;-78
2023/12/09 06:27:42;;;;;;;33.80;23.53;;;;;;;3.54;0.00;100964.63;6157159;28;20279;-78
2023/12/09 06:31:03;;;;;;;35.50;23.57;;;;;;;3.65;0.00;100963.06;6158814;28;20344;-78
2023/12/09 06:34:24;;;;;;;30.17;22.40;;;;;;;3.58;0.00;100959.06;6167808;28;20321;-78
2023/12/09 06:37:46;;;;;;;39.23;23.47;;;;;;;3.62;0.00;100957.06;6157201;28;20246;-79
2023/12/09 06:41:08;;;;;;;28.33;20.43;;;;;;;3.62;0.00;100957.91;6142931;28;20241;-79
2023/12/09 06:44:29;;;;;;;26.40;19.17;;;;;;;3.66;0.00;100966.59;6165452;28;20241;-78
2023/12/09 06:47:53;;;;;;;32.07;21.20;;;;;;;3.71;0.00;100964.50;6156561;28;20273;-77
2023/12/09 06:51:15;;;;;;;33.30;22.73;;;;;;;3.71;0.00;100962.69;6173729;28;20312;-79
2023/12/09 06:54:37;;;;;;;26.83;18.47;;;;;;;3.72;0.00;100956.41;6176650;28;20238;-77
2023/12/09 06:57:58;;;;;;;30.40;18.30;;;;;;;3.76;0.00;100955.28;6164037;28;20627;-77
2023/12/09 07:01:21;;;;;;;25.97;17.10;;;;;;;3.83;0.00;100953.13;6166058;28;20275;-78
2023/12/09 07:04:41;;;;;;;27.90;18.90;;;;;;;3.88;0.00;100953.72;6157840;28;20241;-79
2023/12/09 07:08:02;;;;;;;31.30;20.57;;;;;;;3.86;0.00;100945.78;6167990;28;20238;-79
2023/12/09 07:11:25;;;;;;;27.90;20.23;;;;;;;3.95;0.00;100950.56;6162328;28;20234;-78
2023/12/09 07:14:46;;;;;;;32.90;22.30;;;;;;;4.01;0.00;100947.53;6169359;28;20222;-79
2023/12/09 07:18:08;;;;;;;34.40;20.23;;;;;;;4.08;0.00;100956.03;6166548;28;20230;-78
2023/12/09 07:21:29;;;;;;;26.07;19.30;;;;;;;4.07;0.00;100956.13;6156953;28;20242;-79
2023/12/09 07:24:50;;;;;;;28.03;17.83;;;;;;;4.09;0.00;100954.22;6168611;28;20241;-78
2023/12/09 07:28:13;;;;;;;30.47;20.00;;;;;;;4.11;0.00;100960.31;6141419;28;20226;-78
2023/12/09 07:31:34;;;;;;;32.50;17.83;;;;;;;4.11;0.00;100957.66;6155415;28;20654;-78
2023/12/09 07:34:55;;;;;;;27.33;15.37;;;;;;;4.09;0.00;100952.38;6159193;28;20226;-78
2023/12/09 07:38:16;;;;;;;36.83;22.17;;;;;;;4.11;0.00;100941.66;6157903;28;20233;-79
2023/12/09 07:41:38;;;;;;;23.60;16.40;;;;;;;4.12;0.00;100949.53;6170903;28;20262;-78
2023/12/09 07:45:00;;;;;;;33.10;19.80;;;;;;;4.23;0.00;100948.88;6169049;28;20233;-78
2023/12/09 07:48:21;;;;;;;21.77;14.60;;;;;;;4.23;0.00;100947.09;6174428;28;20687;-77
2023/12/09 07:51:42;;;;;;;24.53;19.20;;;;;;;4.23;0.00;100948.88;6159412;28;20379;-78
2023/12/09 07:55:03;;;;;;;26.57;16.70;;;;;;;4.20;0.00;100946.41;6173014;28;20233;-78
2023/12/09 07:58:24;;;;;;;25.60;18.80;;;;;;;4.18;0.00;100945.63;6159971;28;20313;-78
2023/12/09 08:01:47;;;;;;;21.97;14.93;;;;;;;4.21;0.00;100941.00;6169118;28;20229;-77
2023/12/09 08:05:08;;;;;;;26.83;16.97;;;;;;;4.30;0.00;100939.56;6160380;28;20802;-78
2023/12/09 08:08:28;;;;;;;24.13;15.77;;;;;;;4.42;0.00;100941.47;6167926;28;20257;-77
2023/12/09 08:11:50;;;;;;;22.57;15.20;;;;;;;4.39;0.00;100950.50;6171103;28;20238;-77
2023/12/09 08:15:11;;;;;;;19.13;13.10;;;;;;;4.27;0.00;100939.75;6163981;28;20229;-79
2023/12/09 08:18:33;;;;;;;20.47;14.90;;;;;;;4.30;0.00;100940.41;6173022;28;20241;-79
2023/12/09 08:21:54;;;;;;;18.77;15.53;;;;;;;4.29;0.00;100938.69;6172776;28;20550;-80
2023/12/09 08:25:15;;;;;;;18.07;13.70;;;;;;;4.32;0.00;100938.50;6167444;28;20266;-80
2023/12/09 08:28:36;;;;;;;23.40;18.23;;;;;;;4.30;0.00;100943.06;6160187;28;20242;-79
2023/12/09 08:31:57;;;;;;;19.87;15.27;;;;;;;4.37;0.00;100941.75;6161989;28;20245;-80
2023/12/09 08:35:19;;;;;;;17.13;14.57;;;;;;;4.37;0.00;100936.41;6156755;28;20230;-78
2023/12/09 08:38:40;;;;;;;19.70;16.37;;;;;;;4.35;0.00;100932.13;6177009;28;20238;-81
2023/12/09 08:42:01;;;;;;;19.17;13.77;;;;;;;4.42;0.00;100939.63;6173028;28;20234;-79
2023/12/09 08:45:23;;;;;;;15.70;14.00;;;;;;;4.42;0.00;100918.28;6178422;28;20242;-82
2023/12/09 08:48:44;;;;;;;25.43;15.40;;;;;;;4.43;0.00;100916.47;6176354;28;20501;-80
2023/12/09 08:52:07;;;;;;;22.13;13.90;;;;;;;4.44;0.00;100915.53;6160664;28;20538;-79
2023/12/09 08:55:28;;;;;;;13.37;9.87;;;;;;;4.91;0.00;100901.81;6165394;28;20234;-80
2023/12/09 08:58:49;;;;;;;18.83;13.00;;;;;;;4.72;0.00;100897.66;6176809;28;20231;-79
2023/12/09 09:02:10;;;;;;;22.90;11.97;;;;;;;4.66;0.00;100902.53;6174820;28;20246;-80
2023/12/09 09:05:31;;;;;;;15.80;10.87;;;;;;;4.65;0.00;100901.66;6164545;28;20627;-79
2023/12/09 09:08:53;;;;;;;15.00;10.67;;;;;;;4.74;0.00;100910.91;6175966;28;20765;-77
2023/12/09 09:12:14;;;;;;;17.13;12.47;;;;;;;4.75;0.00;100902.81;6167163;28;20234;-79
2023/12/09 09:15:36;;;;;;;17.27;10.97;;;;;;;4.78;0.00;100901.75;6169875;28;20238;-80
2023/12/09 09:18:57;;;;;;;14.53;11.53;;;;;;;4.88;0.00;100901.03;6167942;28;20811;-80
2023/12/09 09:22:18;;;;;;;13.20;9.50;;;;;;;4.91;0.00;100899.13;6180261;28;20238;-79
2023/12/09 09:25:40;;;;;;;17.23;13.67;;;;;;;4.88;0.00;100895.72;6178469;28;20333;-80
2023/12/09 09:29:02;;;;;;;19.40;13.20;;;;;;;4.83;0.00;100897.84;6178744;28;20225;-80
2023/12/09 09:32:22;;;;;;;20.93;12.03;;;;;;;4.92;0.00;100898.19;6176876;28;20234;-80
2023/12/09 09:35:46;;;;;;;22.17;12.37;;;;;;;4.68;0.00;100904.16;6168902;28;20238;-80
2023/12/09 09:39:07;;;;;;;14.70;9.20;;;;;;;4.85;0.00;100895.94;6176131;28;20233;-80
2023/12/09 09:42:34;;;;;;;18.83;11.40;;;;;;;4.91;0.00;100891.13;6174148;28;20671;-80
2023/12/09 09:45:57;;;;;;;17.97;11.03;;;;;;;4.93;0.00;100892.75;6176055;28;23236;-79
2023/12/09 09:49:20;;;;;;;14.07;11.17;;;;;;;4.85;0.00;100887.91;6164011;28;20226;-79
2023/12/09 09:52:42;;;;;;;14.17;10.27;;;;;;;5.08;0.00;100877.53;6162136;28;20229;-80
2023/12/09 09:56:04;;;;;;;19.60;12.63;;;;;;;4.91;0.00;100867.94;6174466;28;20242;-81
2023/12/09 09:59:27;;;;;;;12.20;9.50;;;;;;;4.93;0.00;100863.38;6175781;28;20242;-81
2023/12/09 10:02:50;;;;;;;12.30;9.87;;;;;;;4.88;0.00;100861.97;6177308;28;20230;-81
2023/12/09 10:06:11;;;;;;;13.43;11.27;;;;;;;4.87;0.00;100853.09;6154552;28;21075;-82
2023/12/09 10:09:33;;;;;;;14.17;10.10;;;;;;;5.04;0.00;100842.16;6160839;28;20237;-81
2023/12/09 10:12:54;;;;;;;22.40;10.93;;;;;;;5.03;0.00;100837.75;6173257;28;20234;-81
2023/12/09 10:16:16;;;;;;;15.33;11.60;;;;;;;5.08;0.00;100816.06;6167303;28;20257;-80
2023/12/09 10:19:38;;;;;;;13.77;10.23;;;;;;;5.02;0.00;100820.03;6164349;28;20599;-82
2023/12/09 10:23:00;;;;;;;17.90;11.03;;;;;;;5.83;0.00;100807.28;6165328;28;20615;-82
2023/12/09 10:26:21;;;;;;;14.23;10.87;;;;;;;8.70;0.00;100789.50;6175663;28;20607;-83
2023/12/09 10:29:45;;;;;;;9.37;8.00;;;;;;;9.68;69.34;100769.44;6175867;28;20233;-83
2023/12/09 10:33:09;;;;;;;10.43;7.60;;;;;;;11.57;100.00;100763.75;6178287;28;20604;-83
2023/12/09 10:36:30;;;;;;;9.73;7.37;;;;;;;10.20;100.00;100753.13;6163603;28;20253;-82
2023/12/09 10:39:51;;;;;;;9.17;7.87;;;;;;;8.29;100.00;100750.88;6176109;28;20402;-81
2023/12/09 10:43:14;;;;;;;11.03;8.10;;;;;;;7.11;100.00;100758.44;6174815;28;20258;-82
2023/12/09 10:46:35;;;;;;;10.40;8.13;;;;;;;6.89;100.00;100758.38;6174255;28;20238;-82
2023/12/09 10:49:58;;;;;;;11.93;9.37;;;;;;;7.07;100.00;100748.94;6154019;28;20241;-82
2023/12/09 10:53:19;;;;;;;7.50;6.73;;;;;;;7.79;100.00;100728.06;6139126;28;20233;-83
2023/12/09 10:56:40;;;;;;;9.43;7.00;;;;;;;7.13;100.00;100736.91;6165581;28;21101;-82
2023/12/09 11:00:09;;;;;;;13.43;8.37;;;;;;;6.75;100.00;100737.13;6164049;28;20230;-82
2023/12/09 11:03:32;;;;;;;14.70;9.17;;;;;;;6.22;100.00;100733.06;6168291;28;20246;-82
2023/12/09 11:06:59;;;;;;;9.63;7.30;;;;;;;5.92;100.00;100710.38;6161204;28;20238;-80
2023/12/09 11:10:21;;;;;;;10.13;7.93;;;;;;;5.76;100.00;100702.53;6151150;28;20261;-77
2023/12/09 11:13:46;;;;;;;8.50;7.40;;;;;;;5.78;100.00;100692.59;6171645;28;20234;-75
2023/12/09 11:17:36;;;;;;;9.07;7.80;;;;;;;5.61;100.00;100690.31;6171212;28;20330;-75
2023/12/09 11:20:57;;;;;;;10.40;7.47;;;;;;;5.67;100.00;100676.50;6168365;28;21124;-75
2023/12/09 11:24:20;;;;;;;11.03;8.63;;;;;;;5.65;100.00;100670.41;6174138;28;20246;-74
2023/12/09 11:27:42;;;;;;;8.23;7.03;;;;;;;5.64;100.00;100666.84;6175319;28;20794;-77
2023/12/09 11:31:03;;;;;;;11.93;7.93;;;;;;;5.54;100.00;100675.66;6174781;28;20234;-76
2023/12/09 11:34:24;;;;;;;9.03;7.60;;;;;;;5.59;100.00;100665.50;6173533;28;20226;-76
2023/12/09 11:37:48;;;;;;;9.67;6.43;;;;;;;5.85;100.00;100659.13;6170260;28;20234;-76
2023/12/09 11:41:11;;;;;;;11.63;9.23;;;;;;;5.82;100.00;100648.59;6173048;28;20230;-79
2023/12/09 11:44:34;;;;;;;10.67;6.93;;;;;;;5.63;100.00;100637.56;6172065;28;20233;-74
2023/12/09 11:47:55;;;;;;;10.30;6.87;;;;;;;5.57;100.00;100621.94;6172860;28;20348;-79
2023/12/09 11:51:16;;;;;;;8.73;7.83;;;;;;;5.48;100.00;100623.47;6179484;28;20226;-79
2023/12/09 11:54:37;;;;;;;10.97;7.47;;;;;;;5.35;100.00;100622.66;6177880;28;20613;-78
2023/12/09 11:58:00;;;;;;;10.53;6.97;;;;;;;5.26;100.00;100630.44;6179504;28;20248;-79
2023/12/09 12:01:21;;;;;;;7.17;6.50;;;;;;;5.19;100.00;100627.38;6181173;28;20257;-76
2023/12/09 12:04:42;;;;;;;9.70;6.70;;;;;;;5.32;100.00;100625.53;6173511;28;20233;-78
2023/12/09 12:08:03;;;;;;;9.03;8.13;;;;;;;5.31;100.00;100623.84;6182554;28;20233;-80
2023/12/09 12:11:25;;;;;;;8.83;6.73;;;;;;;5.27;100.00;100629.50;6183844;28;20241;-79
2023/12/09 12:14:49;;;;;;;7.67;6.90;;;;;;;5.25;100.00;100616.25;6174589;28;20222;-80
2023/12/09 12:18:10;;;;;;;8.77;7.87;;;;;;;5.30;100.00;100607.91;6169418;28;20229;-80
2023/12/09 12:21:31;;;;;;;8.77;6.77;;;;;;;5.17;100.00;100593.72;6181524;28;20229;-80
2023/12/09 12:24:54;;;;;;;7.90;6.13;;;;;;;5.21;100.00;100590.72;6179945;28;20868;-79
2023/12/09 12:28:16;;;;;;;12.93;7.97;;;;;;;5.29;100.00;100590.16;6177355;28;20229;-81
2023/12/09 12:31:38;;;;;;;9.97;6.40;;;;;;;5.33;100.00;100589.84;6176499;28;20245;-80
2023/12/09 12:35:02;;;;;;;6.27;5.67;;;;;;;5.31;100.00;100578.41;6178920;28;20230;-80
2023/12/09 12:38:25;;;;;;;7.53;6.80;;;;;;;5.13;100.00;100578.88;6174862;28;20599;-80
2023/12/09 12:41:47;;;;;;;10.23;7.93;;;;;;;5.19;100.00;100571.28;6178894;28;21171;-81
2023/12/09 12:45:17;;;;;;;7.50;6.70;;;;;;;5.18;100.00;100552.66;6155379;28;20697;-81
2023/12/09 12:48:40;;;;;;;15.87;7.53;;;;;;;4.99;100.00;100553.13;6155534;28;20225;-83
2023/12/09 12:52:02;;;;;;;7.60;6.80;;;;;;;5.13;100.00;100552.16;6175969;28;20233;-81
2023/12/09 12:55:23;;;;;;;11.40;8.37;;;;;;;4.91;100.00;100555.47;6149949;28;20237;-80
2023/12/09 12:58:44;;;;;;;7.50;6.90;;;;;;;4.95;100.00;100538.28;6176309;28;20317;-79
2023/12/09 13:02:06;;;;;;;14.13;7.20;;;;;;;4.96;100.00;100537.31;6175473;28;21264;-80
2023/12/09 13:05:28;;;;;;;7.97;7.00;;;;;;;5.01;100.00;100537.84;6171041;28;20272;-81
2023/12/09 13:08:49;;;;;;;11.97;7.67;;;;;;;4.94;100.00;100517.88;6427002;23;20237;-80
2023/12/09 13:12:11;;;;;;;9.30;7.53;;;;;;;4.84;100.00;100515.00;6179752;28;20626;-82
2023/12/09 13:15:32;;;;;;;7.53;6.83;;;;;;;4.86;100.00;100514.88;6181743;28;20317;-80
2023/12/09 13:18:53;;;;;;;8.17;5.73;;;;;;;4.93;100.00;100507.28;6182196;28;20301;-81
2023/12/09 13:22:15;;;;;;;5.40;4.90;;;;;;;4.84;100.00;100493.63;6181663;28;20231;-80
2023/12/09 13:25:37;;;;;;;9.80;7.37;;;;;;;4.87;100.00;100500.59;6181156;28;20234;-81
2023/12/09 13:28:58;;;;;;;6.23;5.67;;;;;;;4.88;100.00;100498.78;6170093;28;20244;-81
2023/12/09 13:32:19;;;;;;;8.63;6.57;;;;;;;4.84;100.00;100490.97;6163494;28;20234;-80
2023/12/09 13:35:40;;;;;;;6.57;5.93;;;;;;;4.95;100.00;100482.19;6178335;28;22508;-81
2023/12/09 13:39:03;;;;;;;10.87;6.90;;;;;;;5.01;100.00;100471.06;6181240;28;20258;-81
2023/12/09 13:42:25;;;;;;;8.50;7.37;;;;;;;5.10;100.00;100454.38;6171138;28;20532;-81
2023/12/09 13:45:46;;;;;;;8.37;6.40;;;;;;;5.10;100.00;100440.16;6166713;28;20659;-80
2023/12/09 13:49:07;;;;;;;7.40;5.30;;;;;;;5.10;100.00;100429.47;6145523;28;20820;-81
2023/12/09 13:52:31;;;;;;;7.93;6.70;;;;;;;5.04;100.00;100429.94;6148579;28;21071;-81
2023/12/09 13:55:55;;;;;;;9.80;7.33;;;;;;;4.95;100.00;100428.78;6176174;28;20300;-81
2023/12/09 13:59:17;;;;;;;7.30;5.87;;;;;;;5.02;100.00;100405.16;6175993;28;20230;-80
2023/12/09 14:02:38;;;;;;;7.73;5.17;;;;;;;4.97;100.00;100391.25;6172744;28;21648;-83
2023/12/09 14:05:59;;;;;;;7.43;6.73;;;;;;;5.10;100.00;100392.94;6174601;28;20245;-81
2023/12/09 14:09:20;;;;;;;6.03;5.30;;;;;;;4.98;100.00;100390.31;6184247;28;20237;-77
2023/12/09 14:12:43;;;;;;;6.73;6.17;;;;;;;5.01;100.00;100374.03;6185078;28;20229;-83
2023/12/09 14:16:05;;;;;;;5.10;4.60;;;;;;;5.03;100.00;100367.63;6184989;28;20233;-83
2023/12/09 14:19:27;;;;;;;5.80;4.87;;;;;;;5.16;100.00;100352.41;6178272;28;20513;-78
2023/12/09 14:22:48;;;;;;;8.10;5.27;;;;;;;5.10;100.00;100355.53;6184158;28;20266;-84
2023/12/09 14:26:10;;;;;;;10.67;5.80;;;;;;;5.10;100.00;100346.66;6169372;28;20238;-83
2023/12/09 14:29:32;;;;;;;5.47;4.80;;;;;;;5.06;100.00;100337.19;6175144;28;20233;-79
2023/12/09 14:32:53;;;;;;;7.77;5.43;;;;;;;5.05;100.00;100324.81;6185092;28;20241;-78
2023/12/09 14:36:14;;;;;;;4.53;4.13;;;;;;;4.97;100.00;100316.47;6173788;28;21718;-82
2023/12/09 14:39:35;;;;;;;6.53;5.03;;;;;;;5.07;100.00;100302.31;6170060;28;20237;-79
2023/12/09 14:42:57;;;;;;;7.90;5.27;;;;;;;5.12;100.00;100299.31;6174847;28;20242;-79
2023/12/09 14:46:19;;;;;;;5.37;3.83;;;;;;;5.04;100.00;100291.03;6184111;28;20324;-80
2023/12/09 14:49:40;;;;;;;5.13;4.63;;;;;;;5.18;100.00;100290.84;6184841;28;20504;-78
2023/12/09 14:53:01;;;;;;;5.30;4.80;;;;;;;4.97;100.00;100282.63;6184185;28;20546;-80
2023/12/09 14:56:22;;;;;;;7.40;5.60;;;;;;;4.98;100.00;100271.00;6184764;28;20226;-76
2023/12/09 14:59:44;;;;;;;5.17;3.93;;;;;;;4.93;100.00;100258.94;6192410;28;20482;-82
2023/12/09 15:03:06;;;;;;;7.70;6.37;;;;;;;4.99;100.00;100242.44;6177052;28;20241;-82
2023/12/09 15:06:27;;;;;;;7.70;4.30;;;;;;;5.06;100.00;100235.69;6179904;28;20242;-81
2023/12/09 15:09:49;;;;;;;4.60;4.17;;;;;;;5.27;100.00;100226.88;6188717;28;20224;-78
2023/12/09 15:13:10;;;;;;;6.67;4.77;;;;;;;5.78;100.00;100213.06;6174774;28;20229;-82
2023/12/09 15:16:31;;;;;;;3.73;3.43;;;;;;;6.33;100.00;100195.13;6191406;28;20237;-79
2023/12/09 15:19:54;;;;;;;4.40;4.00;;;;;;;5.90;100.00;100188.03;6174923;28;20518;-75
2023/12/09 15:23:15;;;;;;;4.17;3.77;;;;;;;5.40;100.00;100170.66;6169141;28;20234;-75
2023/12/09 15:26:36;;;;;;;5.10;4.20;;;;;;;5.25;100.00;100166.50;6186773;28;20609;-76
2023/12/09 15:29:58;;;;;;;4.30;3.90;;;;;;;5.24;100.00;100164.78;6184798;28;20550;-76